Time;durP1;ratioP1;P1;durP2;ratioP2;P2;SDS_P1;SDS_P2;PMS_P1;PMS_P2;Temp;Humidity;BMP_temperature;BMP_pressure;BME280_temperature;BME280_humidity;BME280_pressure;Samples;Min_cycle;Max_cycle;Signal;HPM_P1;HPM_P2
2024/01/24 00:01:53;;;;;;;6.40;1.53;;;;;;;10.31;81.07;148721.38;4984623;28;20714;-66
2024/01/24 00:04:20;;;;;;;4.67;1.13;;;;;;;10.34;80.76;148728.84;4981840;28;20239;-67
2024/01/24 00:06:46;;;;;;;5.70;1.13;;;;;;;10.42;80.20;148747.53;4987613;28;20231;-66
2024/01/24 00:09:13;;;;;;;7.90;1.17;;;;;;;10.41;81.42;148746.31;4985759;28;20234;-67
2024/01/24 00:11:40;;;;;;;5.00;0.73;;;;;;;10.37;81.92;148735.03;4986491;28;20234;-66
2024/01/24 00:14:07;;;;;;;6.50;1.07;;;;;;;10.42;81.52;148748.81;4985112;28;20314;-66
2024/01/24 00:16:35;;;;;;;8.20;1.20;;;;;;;10.45;81.61;148755.03;4988472;28;20694;-66
2024/01/24 00:19:01;;;;;;;4.83;0.93;;;;;;;10.48;80.71;148763.75;4988909;28;20693;-67
2024/01/24 00:21:28;;;;;;;6.40;0.80;;;;;;;10.54;81.63;148776.22;4987758;28;20235;-67
2024/01/24 00:23:58;;;;;;;6.63;0.97;;;;;;;10.53;82.68;148773.72;4988083;28;20230;-68
2024/01/24 00:26:25;;;;;;;4.33;1.07;;;;;;;10.53;82.92;148773.72;4985622;28;20687;-68
2024/01/24 00:28:52;;;;;;;5.07;1.10;;;;;;;10.59;82.12;148788.69;5003087;28;20247;-67
2024/01/24 00:31:18;;;;;;;7.10;1.27;;;;;;;10.58;83.31;148787.41;4985574;28;20785;-68
2024/01/24 00:33:46;;;;;;;4.57;1.40;;;;;;;10.61;82.88;148794.88;4988411;28;20227;-67
2024/01/24 00:36:13;;;;;;;7.10;1.03;;;;;;;10.64;83.28;148801.09;4975708;28;20540;-67
2024/01/24 00:38:40;;;;;;;6.33;0.90;;;;;;;10.67;81.65;148808.56;4980363;28;20232;-68
2024/01/24 00:41:07;;;;;;;2.87;0.70;;;;;;;10.75;81.78;148828.50;4985684;28;20223;-68
2024/01/24 00:43:34;;;;;;;6.40;1.20;;;;;;;10.74;81.54;148824.78;4987133;28;20224;-68
2024/01/24 00:46:01;;;;;;;5.83;1.13;;;;;;;10.73;81.30;148822.28;4988474;28;20228;-68
2024/01/24 00:48:28;;;;;;;6.27;1.10;;;;;;;10.67;82.05;148808.56;4983830;28;20256;-68
2024/01/24 00:50:56;;;;;;;6.13;1.53;;;;;;;10.70;80.55;148814.81;4987929;28;20244;-68
2024/01/24 00:53:23;;;;;;;3.93;1.00;;;;;;;10.68;81.02;148809.81;4984326;28;20697;-68
2024/01/24 00:55:50;;;;;;;7.33;0.90;;;;;;;10.70;81.61;148814.81;4988157;28;20227;-68
2024/01/24 00:58:17;;;;;;;4.27;1.00;;;;;;;10.68;81.43;148811.03;4984695;28;20223;-68
2024/01/24 01:00:43;;;;;;;6.10;0.93;;;;;;;10.67;81.08;148808.56;4987971;28;20231;-68
2024/01/24 01:03:10;;;;;;;6.27;1.53;;;;;;;10.71;82.10;148818.53;4984954;28;20213;-68
2024/01/24 01:05:37;;;;;;;4.53;0.80;;;;;;;10.80;81.22;148838.44;4987794;28;20717;-68
2024/01/24 01:08:06;;;;;;;4.50;0.73;;;;;;;10.83;82.02;148847.19;4987428;28;20234;-67
2024/01/24 01:10:33;;;;;;;4.23;1.00;;;;;;;10.77;82.71;148832.25;4986599;28;20238;-67
2024/01/24 01:13:00;;;;;;;3.50;1.03;;;;;;;10.81;81.72;148840.94;4987846;28;20238;-67
2024/01/24 01:15:27;;;;;;;6.97;0.93;;;;;;;10.81;82.56;148842.22;4984367;28;20725;-67
2024/01/24 01:17:53;;;;;;;4.23;1.07;;;;;;;10.88;81.58;148858.38;4987171;28;20239;-67
2024/01/24 01:20:20;;;;;;;5.20;0.90;;;;;;;10.74;83.31;148824.78;4984729;28;20217;-67
2024/01/24 01:22:47;;;;;;;3.80;0.80;;;;;;;10.72;83.05;148819.78;4987875;28;20219;-67
2024/01/24 01:25:15;;;;;;;2.23;0.90;;;;;;;10.75;82.64;148828.50;4984576;28;20220;-67
2024/01/24 01:27:42;;;;;;;7.43;1.17;;;;;;;10.74;83.27;148826.00;4987486;28;20308;-67
2024/01/24 01:30:09;;;;;;;7.80;0.97;;;;;;;10.70;83.33;148816.03;4998683;28;20232;-67
2024/01/24 01:32:35;;;;;;;5.90;0.80;;;;;;;10.68;84.14;148809.81;5000549;28;20570;-68
2024/01/24 01:35:02;;;;;;;6.13;1.00;;;;;;;10.69;84.05;148813.53;4977754;28;20230;-68
2024/01/24 01:37:29;;;;;;;4.17;0.93;;;;;;;10.63;83.49;148799.84;4998407;28;20576;-68
2024/01/24 01:39:55;;;;;;;2.17;0.70;;;;;;;10.72;82.86;148819.78;5001951;28;20213;-68
2024/01/24 01:42:23;;;;;;;3.83;0.90;;;;;;;10.76;82.74;148830.97;4984470;28;20238;-68
2024/01/24 01:44:50;;;;;;;6.23;1.20;;;;;;;10.75;83.36;148828.50;4986599;28;20299;-68
2024/01/24 01:47:17;;;;;;;3.33;1.00;;;;;;;10.77;83.33;148832.25;4984140;28;20227;-68
2024/01/24 01:49:45;;;;;;;5.43;1.13;;;;;;;10.70;83.89;148814.81;4986767;28;20222;-68
2024/01/24 01:52:13;;;;;;;6.57;0.93;;;;;;;10.77;83.86;148832.25;4997417;28;20285;-67
2024/01/24 01:54:42;;;;;;;4.80;1.00;;;;;;;10.81;83.16;148840.94;4986132;28;20718;-68
2024/01/24 01:57:11;;;;;;;4.17;0.73;;;;;;;10.81;83.11;148840.94;4984341;28;20224;-68
2024/01/24 01:59:41;;;;;;;6.87;0.80;;;;;;;10.75;82.88;148827.25;4985458;28;20351;-68
2024/01/24 02:02:08;;;;;;;6.07;1.00;;;;;;;10.69;83.38;148813.53;4983983;28;20314;-68
2024/01/24 02:04:34;;;;;;;3.10;0.70;;;;;;;10.67;83.58;148807.34;4985811;28;20239;-68
2024/01/24 02:07:02;;;;;;;3.53;0.80;;;;;;;10.71;82.78;148818.53;4983692;28;20224;-68
2024/01/24 02:09:29;;;;;;;6.10;1.00;;;;;;;10.71;84.04;148818.53;4982173;28;20227;-68
2024/01/24 02:11:55;;;;;;;4.27;0.80;;;;;;;10.70;84.79;148814.81;4986635;28;20273;-68
2024/01/24 02:14:22;;;;;;;4.83;1.07;;;;;;;10.75;84.93;148827.25;4982419;28;20225;-68
2024/01/24 02:16:50;;;;;;;4.80;1.20;;;;;;;10.63;86.00;148799.84;4985748;28;20683;-68
2024/01/24 02:19:17;;;;;;;5.83;0.60;;;;;;;10.66;85.53;148804.84;4998159;28;20236;-67
2024/01/24 02:21:43;;;;;;;2.80;0.90;;;;;;;10.71;85.34;148817.31;4984568;28;20264;-67
2024/01/24 02:24:12;;;;;;;4.33;0.77;;;;;;;10.62;86.45;148796.09;4982511;28;20230;-68
2024/01/24 02:26:39;;;;;;;4.00;0.97;;;;;;;10.61;86.60;148794.88;5000162;28;20284;-67
2024/01/24 02:29:06;;;;;;;3.93;0.60;;;;;;;10.53;87.47;148773.72;4982082;28;20618;-67
2024/01/24 02:31:32;;;;;;;4.27;0.90;;;;;;;10.47;87.86;148760.00;4992531;28;20232;-67
2024/01/24 02:33:59;;;;;;;5.97;0.70;;;;;;;10.43;89.27;148750.03;4987022;28;20607;-67
2024/01/24 02:36:25;;;;;;;2.77;0.77;;;;;;;10.45;88.47;148755.03;4998426;28;20234;-67
2024/01/24 02:38:52;;;;;;;3.93;0.70;;;;;;;10.48;88.13;148762.50;4986634;28;20227;-67
2024/01/24 02:41:20;;;;;;;4.23;1.30;;;;;;;10.59;87.74;148788.69;4982946;28;20575;-68
2024/01/24 02:43:47;;;;;;;4.30;0.70;;;;;;;10.47;88.86;148760.00;4985560;28;20220;-67
2024/01/24 02:46:14;;;;;;;4.20;0.80;;;;;;;10.57;88.13;148783.69;4981693;28;20219;-67
2024/01/24 02:48:40;;;;;;;4.37;0.70;;;;;;;10.72;87.28;148821.00;4986390;28;20234;-67
2024/01/24 02:51:07;;;;;;;2.30;0.70;;;;;;;10.63;88.45;148798.59;4998106;28;20234;-67
2024/01/24 02:53:34;;;;;;;3.50;0.80;;;;;;;10.61;88.50;148793.59;4985904;28;20229;-67
2024/01/24 02:56:00;;;;;;;4.10;0.80;;;;;;;10.81;86.68;148840.94;4986090;28;20235;-67
2024/01/24 02:58:30;;;;;;;4.80;1.10;;;;;;;10.96;85.03;148877.09;4983449;28;20327;-67
2024/01/24 03:00:57;;;;;;;3.97;0.80;;;;;;;11.00;85.60;148888.28;4985356;28;20223;-67
2024/01/24 03:03:26;;;;;;;3.00;0.80;;;;;;;11.04;85.08;148898.25;4981323;28;20233;-67
2024/01/24 03:05:53;;;;;;;4.63;0.83;;;;;;;11.02;85.41;148893.28;4985587;28;20693;-68
2024/01/24 03:08:19;;;;;;;5.00;0.70;;;;;;;11.03;85.22;148894.53;4982609;28;20251;-67
2024/01/24 03:10:46;;;;;;;4.77;1.00;;;;;;;10.96;86.50;148878.31;4985778;28;20232;-68
2024/01/24 03:13:13;;;;;;;3.23;0.50;;;;;;;11.17;84.10;148929.38;4982053;28;20227;-67
2024/01/24 03:15:41;;;;;;;5.00;0.97;;;;;;;11.20;84.09;148935.63;4984683;28;20230;-67
2024/01/24 03:18:07;;;;;;;2.97;0.80;;;;;;;11.24;83.39;148945.59;4981627;28;20234;-67
2024/01/24 03:20:34;;;;;;;5.27;0.73;;;;;;;11.23;84.28;148943.09;4985121;28;20227;-67
2024/01/24 03:23:01;;;;;;;5.37;0.90;;;;;;;11.17;85.38;148928.16;4985209;28;21180;-67
2024/01/24 03:25:27;;;;;;;3.27;0.87;;;;;;;11.27;84.81;148953.06;4981055;28;20234;-68
2024/01/24 03:27:54;;;;;;;5.43;0.90;;;;;;;11.18;86.43;148931.88;4984360;28;20703;-67
2024/01/24 03:30:21;;;;;;;4.53;1.03;;;;;;;11.23;85.81;148944.34;4982176;28;20248;-67
2024/01/24 03:32:48;;;;;;;3.63;0.70;;;;;;;11.28;85.45;148955.56;4985161;28;20235;-67
2024/01/24 03:35:15;;;;;;;3.37;0.80;;;;;;;11.23;86.62;148943.09;4981714;28;20906;-68
2024/01/24 03:37:42;;;;;;;3.53;0.80;;;;;;;11.25;86.36;148946.81;4985332;28;20274;-68
2024/01/24 03:40:09;;;;;;;2.80;1.10;;;;;;;11.27;86.00;148953.06;4972658;28;20214;-67
2024/01/24 03:42:36;;;;;;;4.03;1.17;;;;;;;11.29;86.16;148958.06;4976232;28;20245;-67
2024/01/24 03:45:03;;;;;;;4.63;0.77;;;;;;;11.33;86.57;148968.03;4999858;28;20233;-67
2024/01/24 03:47:30;;;;;;;3.13;0.70;;;;;;;11.26;87.83;148950.59;4979623;28;20309;-67
2024/01/24 03:49:58;;;;;;;7.10;1.17;;;;;;;11.27;87.66;148953.06;4984749;28;20358;-67
2024/01/24 03:52:24;;;;;;;4.87;1.00;;;;;;;11.31;87.83;148963.06;4981628;28;20598;-67
2024/01/24 03:54:51;;;;;;;3.60;0.80;;;;;;;11.33;87.55;148968.03;4983575;28;20238;-68
2024/01/24 03:57:17;;;;;;;3.27;1.57;;;;;;;11.30;87.62;148960.56;4981608;28;20231;-67
2024/01/24 03:59:44;;;;;;;2.77;0.90;;;;;;;11.30;87.84;148960.56;4984741;28;20331;-68
2024/01/24 04:02:11;;;;;;;7.13;1.07;;;;;;;11.26;88.53;148950.59;4981620;28;20751;-68
2024/01/24 04:04:37;;;;;;;2.90;0.90;;;;;;;11.23;89.28;148944.34;4984576;28;20226;-67
2024/01/24 04:07:05;;;;;;;4.93;0.90;;;;;;;11.28;89.42;148954.31;4981948;28;20740;-68
2024/01/24 04:09:32;;;;;;;2.43;0.90;;;;;;;11.26;89.08;148949.31;4984157;28;20242;-67
2024/01/24 04:11:58;;;;;;;5.37;1.07;;;;;;;11.30;89.05;148959.28;4984686;28;20285;-67
2024/01/24 04:14:25;;;;;;;3.33;0.80;;;;;;;11.29;89.82;148958.06;4981536;28;20734;-67
2024/01/24 04:16:52;;;;;;;4.63;0.90;;;;;;;11.30;89.46;148959.28;4984919;28;20220;-67
2024/01/24 04:19:18;;;;;;;4.83;1.00;;;;;;;11.23;89.80;148944.34;4981668;28;20228;-68
2024/01/24 04:21:45;;;;;;;5.22;1.05;;;;;;;11.20;90.81;148935.63;4983293;28;20448;-67
2024/01/24 04:24:13;;;;;;;3.83;0.90;;;;;;;11.21;91.16;148938.13;4981553;28;20236;-68
2024/01/24 04:26:40;;;;;;;8.67;1.30;;;;;;;11.23;90.30;148944.34;4985277;28;20574;-68
2024/01/24 04:29:07;;;;;;;5.57;1.10;;;;;;;11.22;91.00;148940.63;4982067;28;20746;-68
2024/01/24 04:31:34;;;;;;;6.40;1.33;;;;;;;11.29;90.25;148956.78;5217588;23;20228;-68
2024/01/24 04:34:01;;;;;;;5.13;1.00;;;;;;;11.29;91.16;148958.06;4995520;28;20226;-67
2024/01/24 04:36:27;;;;;;;7.13;1.40;;;;;;;11.29;90.90;148958.06;4988735;28;20265;-67
2024/01/24 04:38:54;;;;;;;5.83;1.00;;;;;;;11.28;90.96;148954.31;5001484;28;20221;-68
2024/01/24 04:41:22;;;;;;;5.23;1.00;;;;;;;11.22;91.83;148940.63;4992763;28;20591;-68
2024/01/24 04:43:48;;;;;;;4.30;1.10;;;;;;;11.34;91.13;148969.25;4983199;28;20229;-68
2024/01/24 04:46:16;;;;;;;4.77;0.90;;;;;;;11.34;91.45;148970.53;4980702;28;20229;-68
2024/01/24 04:48:44;;;;;;;3.27;0.70;;;;;;;11.31;92.06;148961.78;4994915;28;20224;-68
2024/01/24 04:51:10;;;;;;;2.67;1.07;;;;;;;11.30;92.01;148960.56;4991234;28;20227;-68
2024/01/24 04:53:37;;;;;;;5.87;1.00;;;;;;;11.23;93.12;148944.34;4998967;28;20234;-68
2024/01/24 04:56:04;;;;;;;2.87;1.00;;;;;;;11.27;92.76;148953.06;4994696;28;20228;-68
2024/01/24 04:58:32;;;;;;;2.93;0.97;;;;;;;11.27;93.18;148953.06;4995878;28;21204;-68
2024/01/24 05:01:00;;;;;;;4.67;0.90;;;;;;;11.28;93.57;148954.31;4999229;28;20245;-68
2024/01/24 05:03:29;;;;;;;4.73;1.07;;;;;;;11.28;93.89;148955.56;4994977;28;20244;-68
2024/01/24 05:05:56;;;;;;;7.43;1.30;;;;;;;11.34;93.80;148969.25;4999182;28;20703;-68
2024/01/24 05:08:22;;;;;;;4.20;1.10;;;;;;;11.29;94.87;148956.78;4995922;28;20234;-67
2024/01/24 05:10:50;;;;;;;3.97;0.80;;;;;;;11.33;95.36;148968.03;4995587;28;20236;-68
2024/01/24 05:13:16;;;;;;;4.53;0.80;;;;;;;11.36;95.39;148974.25;4992837;28;20715;-68
2024/01/24 05:15:45;;;;;;;2.67;0.63;;;;;;;11.34;95.92;148969.25;4999210;28;20241;-68
2024/01/24 05:18:11;;;;;;;1.87;1.10;;;;;;;11.31;96.35;148963.06;4995801;28;20239;-68
2024/01/24 05:20:38;;;;;;;7.50;2.40;;;;;;;11.26;97.18;148949.31;4996552;28;20538;-68
2024/01/24 05:23:05;;;;;;;4.27;1.30;;;;;;;11.34;97.64;148969.25;4992564;28;20232;-68
2024/01/24 05:25:32;;;;;;;4.50;2.07;;;;;;;11.31;98.04;148961.78;5003660;28;20245;-68
2024/01/24 05:27:58;;;;;;;5.13;2.10;;;;;;;11.34;98.09;148970.53;5004241;28;20224;-68
2024/01/24 05:30:26;;;;;;;2.57;0.97;;;;;;;11.38;98.03;148979.22;4992552;28;20230;-68
2024/01/24 05:32:56;;;;;;;2.30;1.00;;;;;;;11.39;98.51;148980.50;4999549;28;20326;-68
2024/01/24 05:35:23;;;;;;;2.13;0.83;;;;;;;11.50;98.83;149007.91;4993111;28;20227;-68
2024/01/24 05:37:50;;;;;;;4.53;0.90;;;;;;;11.50;98.98;149007.91;4995388;28;20219;-68
2024/01/24 05:40:17;;;;;;;3.90;0.90;;;;;;;11.55;98.93;149020.38;4996460;28;20238;-68
2024/01/24 05:42:44;;;;;;;2.10;0.80;;;;;;;11.54;99.32;149017.88;4993914;28;20273;-68
2024/01/24 05:45:12;;;;;;;4.47;1.03;;;;;;;11.47;100.00;149001.66;4998512;28;20221;-68
2024/01/24 05:47:39;;;;;;;2.53;1.40;;;;;;;11.52;100.00;149014.13;4989610;28;20377;-67
2024/01/24 05:50:11;;;;;;;3.90;0.73;;;;;;;11.62;99.97;149037.81;4993826;28;20315;-67
2024/01/24 05:52:38;;;;;;;1.83;0.80;;;;;;;11.55;100.00;149019.09;4999232;28;20258;-67
2024/01/24 05:55:06;;;;;;;2.60;0.77;;;;;;;11.56;100.00;149021.59;4995456;28;20225;-67
2024/01/24 05:57:32;;;;;;;5.27;1.13;;;;;;;11.61;100.00;149034.06;4994537;28;20237;-68
2024/01/24 05:59:59;;;;;;;2.80;0.80;;;;;;;11.65;100.00;149044.03;4996925;28;20238;-67
2024/01/24 06:02:26;;;;;;;2.20;0.60;;;;;;;11.67;100.00;149049.03;4993219;28;20236;-67
2024/01/24 06:04:52;;;;;;;2.00;0.63;;;;;;;11.70;100.00;149056.50;4996404;28;20233;-68
2024/01/24 06:07:20;;;;;;;3.67;0.83;;;;;;;11.77;100.00;149073.94;4993911;28;20227;-68
2024/01/24 06:09:48;;;;;;;3.33;0.80;;;;;;;11.80;100.00;149080.16;4996953;28;20251;-67
2024/01/24 06:12:14;;;;;;;2.17;0.70;;;;;;;11.85;99.61;149092.63;4992984;28;20234;-67
2024/01/24 06:14:41;;;;;;;2.17;0.80;;;;;;;11.95;98.95;149117.56;4993393;28;20720;-67
2024/01/24 06:17:08;;;;;;;1.90;0.50;;;;;;;11.91;99.10;149106.34;4993997;28;20235;-67
2024/01/24 06:19:34;;;;;;;0.90;0.50;;;;;;;12.00;98.62;149128.84;5003499;28;20698;-67
2024/01/24 06:22:01;;;;;;;1.27;0.50;;;;;;;11.95;98.92;149116.34;4994458;28;20234;-67
2024/01/24 06:24:29;;;;;;;1.10;0.67;;;;;;;12.04;98.35;149137.56;4992870;28;20862;-67
2024/01/24 06:26:56;;;;;;;2.60;0.63;;;;;;;11.98;99.05;149122.53;4995929;28;20700;-68
2024/01/24 06:29:22;;;;;;;2.50;0.70;;;;;;;11.98;98.89;149122.53;4991447;28;20721;-68
2024/01/24 06:31:50;;;;;;;2.83;0.50;;;;;;;12.04;98.66;149138.81;5003274;28;20226;-67
2024/01/24 06:34:16;;;;;;;3.67;0.57;;;;;;;12.11;97.88;149155.00;4992656;28;20251;-67
2024/01/24 06:36:43;;;;;;;2.80;0.60;;;;;;;12.12;97.89;149157.50;5005427;28;20231;-67
2024/01/24 06:39:10;;;;;;;1.10;0.50;;;;;;;12.13;99.39;149158.78;4990825;28;20230;-67
2024/01/24 06:41:38;;;;;;;2.60;0.60;;;;;;;11.87;100.00;149097.59;5001766;28;20237;-67
2024/01/24 06:44:05;;;;;;;2.27;0.70;;;;;;;11.65;100.00;149044.03;4991342;28;20226;-67
2024/01/24 06:46:32;;;;;;;1.60;0.43;;;;;;;11.59;100.00;149030.34;4995122;28;20280;-67
2024/01/24 06:48:59;;;;;;;1.70;0.60;;;;;;;11.41;100.00;148985.47;4996301;28;20234;-67
2024/01/24 06:51:26;;;;;;;2.33;0.50;;;;;;;11.34;100.00;148970.53;4995116;28;20250;-68
2024/01/24 06:53:53;;;;;;;2.57;0.60;;;;;;;11.28;100.00;148954.31;4994378;28;20228;-67
2024/01/24 06:56:21;;;;;;;2.47;1.50;;;;;;;11.18;100.00;148931.88;4991696;28;20235;-68
2024/01/24 06:58:49;;;;;;;1.27;0.60;;;;;;;11.15;100.00;148924.41;4996543;28;20229;-68
2024/01/24 07:01:15;;;;;;;1.85;0.70;;;;;;;11.24;100.00;148945.59;4994057;28;20435;-66
2024/01/24 07:03:42;;;;;;;1.30;0.43;;;;;;;11.16;100.00;148925.66;4994717;28;20701;-66
2024/01/24 07:06:09;;;;;;;2.93;0.60;;;;;;;11.16;100.00;148926.88;4989682;28;20228;-67
2024/01/24 07:08:35;;;;;;;3.37;0.90;;;;;;;11.18;100.00;148930.66;4995614;28;20229;-66
2024/01/24 07:11:02;;;;;;;1.70;0.43;;;;;;;11.22;100.00;148940.63;4992113;28;20238;-65
2024/01/24 07:13:29;;;;;;;1.30;0.70;;;;;;;11.22;100.00;148941.84;5000644;28;20243;-66
2024/01/24 07:15:57;;;;;;;2.10;0.40;;;;;;;11.35;100.00;148973.03;4994046;28;20234;-66
2024/01/24 07:18:27;;;;;;;3.83;1.10;;;;;;;11.29;100.00;148958.06;4994922;28;20318;-65
2024/01/24 07:20:54;;;;;;;1.37;0.50;;;;;;;11.29;100.00;148958.06;4995385;28;20314;-66
2024/01/24 07:23:20;;;;;;;1.57;0.47;;;;;;;11.32;100.00;148965.53;4992667;28;20362;-66
2024/01/24 07:25:47;;;;;;;1.77;0.90;;;;;;;11.34;100.00;148969.25;4995580;28;20231;-66
2024/01/24 07:28:14;;;;;;;1.40;0.43;;;;;;;11.20;100.00;148935.63;4994646;28;20227;-66
2024/01/24 07:30:41;;;;;;;2.23;0.60;;;;;;;11.21;100.00;148938.13;4994426;28;20297;-66
2024/01/24 07:33:09;;;;;;;1.93;0.33;;;;;;;11.13;100.00;148918.19;4993733;28;20220;-66
2024/01/24 07:35:35;;;;;;;5.40;3.47;;;;;;;11.16;100.00;148925.66;4993715;28;20251;-66
2024/01/24 07:38:03;;;;;;;0.87;0.70;;;;;;;11.23;100.00;148943.09;4993747;28;20231;-66
2024/01/24 07:40:29;;;;;;;1.43;0.80;;;;;;;11.25;100.00;148948.09;4991049;28;20240;-66
2024/01/24 07:42:56;;;;;;;2.10;1.27;;;;;;;11.25;100.00;148948.09;4994954;28;20226;-66
2024/01/24 07:45:23;;;;;;;1.03;0.50;;;;;;;11.40;100.00;148984.22;4982560;28;20221;-66
2024/01/24 07:47:51;;;;;;;1.57;1.17;;;;;;;11.44;100.00;148994.19;4997059;28;20226;-66
2024/01/24 07:50:19;;;;;;;0.70;0.40;;;;;;;11.49;100.00;149006.63;4996026;28;20235;-66
2024/01/24 07:52:46;;;;;;;1.83;0.50;;;;;;;11.48;100.00;149002.94;4988222;28;20368;-65
2024/01/24 07:55:15;;;;;;;2.40;0.33;;;;;;;11.54;100.00;149017.88;4997227;28;20227;-65
2024/01/24 07:57:41;;;;;;;0.77;0.30;;;;;;;11.51;100.00;149011.63;4990628;28;20234;-66
2024/01/24 08:00:08;;;;;;;2.07;0.47;;;;;;;11.54;100.00;149017.88;4991775;28;20705;-65
2024/01/24 08:02:35;;;;;;;3.43;0.50;;;;;;;11.58;100.00;149027.84;4990475;28;20235;-66
2024/01/24 08:05:02;;;;;;;1.37;0.30;;;;;;;11.63;100.00;149039.03;4994389;28;20246;-66
2024/01/24 08:07:31;;;;;;;0.30;0.20;;;;;;;11.60;100.00;149032.84;4990108;28;20226;-66
2024/01/24 08:09:57;;;;;;;0.67;0.30;;;;;;;11.62;100.00;149037.81;4996205;28;20246;-65
2024/01/24 08:12:24;;;;;;;0.20;0.20;;;;;;;11.65;100.00;149045.31;4992025;28;22512;-65
2024/01/24 08:14:51;;;;;;;0.80;0.30;;;;;;;11.65;100.00;149045.31;4999187;28;20213;-65
2024/01/24 08:17:17;;;;;;;0.83;0.37;;;;;;;11.62;100.00;149037.81;4993531;28;20249;-65
2024/01/24 08:19:44;;;;;;;0.77;0.20;;;;;;;11.71;100.00;149059.00;4995179;28;20236;-65
2024/01/24 08:22:11;;;;;;;0.30;0.30;;;;;;;11.70;100.00;149055.22;4998279;28;20316;-65
2024/01/24 08:24:39;;;;;;;0.30;0.30;;;;;;;11.74;100.00;149065.19;4994272;28;20251;-65
2024/01/24 08:27:06;;;;;;;1.30;0.40;;;;;;;11.71;100.00;149059.00;4994924;28;20232;-66
2024/01/24 08:29:32;;;;;;;1.17;0.30;;;;;;;11.79;100.00;149077.66;4999786;28;20228;-65
2024/01/24 08:31:59;;;;;;;0.30;0.20;;;;;;;11.79;100.00;149077.66;4997955;28;20235;-66
2024/01/24 08:34:25;;;;;;;0.63;0.20;;;;;;;11.84;100.00;149090.13;4996046;28;20303;-66
2024/01/24 08:36:52;;;;;;;0.30;0.30;;;;;;;11.88;100.00;149100.09;4997146;28;20569;-66
2024/01/24 08:39:19;;;;;;;0.93;0.23;;;;;;;11.93;100.00;149111.34;4994438;28;20230;-66
2024/01/24 08:41:47;;;;;;;0.53;0.30;;;;;;;11.94;100.00;149113.84;5004876;28;20574;-66
2024/01/24 08:44:14;;;;;;;0.80;0.30;;;;;;;11.90;100.00;149105.09;4994904;28;20571;-66
2024/01/24 08:46:40;;;;;;;0.97;0.30;;;;;;;11.94;100.00;149115.06;4995188;28;20228;-66
2024/01/24 08:49:07;;;;;;;1.67;0.30;;;;;;;12.02;100.00;149132.56;4987500;28;20223;-65
2024/01/24 08:51:34;;;;;;;0.60;0.30;;;;;;;11.97;100.00;149121.31;4998293;28;20238;-65
2024/01/24 08:54:00;;;;;;;2.47;0.40;;;;;;;12.05;100.00;149140.03;4998508;28;20233;-66
2024/01/24 08:56:27;;;;;;;0.97;0.20;;;;;;;11.94;100.00;149115.06;4996041;28;20241;-66
2024/01/24 08:58:55;;;;;;;1.67;0.57;;;;;;;11.93;100.00;149111.34;4998464;28;20703;-65
2024/01/24 09:01:22;;;;;;;2.67;2.27;;;;;;;11.96;100.00;149118.81;4994297;28;20234;-65
2024/01/24 09:03:49;;;;;;;5.53;4.37;;;;;;;11.92;100.00;149110.09;4992733;28;20235;-66
2024/01/24 09:06:16;;;;;;;1.60;1.17;;;;;;;11.92;100.00;149110.09;5002488;28;20612;-65
2024/01/24 09:08:44;;;;;;;1.23;0.70;;;;;;;11.95;100.00;149117.56;4995290;28;20236;-65
2024/01/24 09:11:11;;;;;;;0.80;0.40;;;;;;;11.97;100.00;149121.31;4993895;28;20242;-65
2024/01/24 09:13:37;;;;;;;1.93;1.43;;;;;;;11.96;100.00;149120.06;4998523;28;20222;-65
2024/01/24 09:16:06;;;;;;;2.30;0.87;;;;;;;11.99;100.00;149126.31;5000798;28;20229;-65
2024/01/24 09:18:32;;;;;;;2.40;1.53;;;;;;;11.89;100.00;149101.38;4992601;28;21318;-65
2024/01/24 09:20:59;;;;;;;1.27;0.95;;;;;;;11.94;100.00;149115.06;4996430;28;20453;-66
2024/01/24 09:23:28;;;;;;;1.27;0.30;;;;;;;11.95;100.00;149117.56;4999441;28;20235;-65
2024/01/24 09:25:55;;;;;;;0.80;0.50;;;;;;;11.81;100.00;149083.91;4993635;28;20723;-66
2024/01/24 09:28:22;;;;;;;1.37;0.50;;;;;;;11.83;100.00;149087.63;4993320;28;20227;-66
2024/01/24 09:30:49;;;;;;;1.13;0.70;;;;;;;11.85;100.00;149091.41;4994532;28;20608;-66
2024/01/24 09:33:17;;;;;;;1.20;0.50;;;;;;;11.79;100.00;149077.66;4992148;28;20239;-66
2024/01/24 09:35:46;;;;;;;1.33;0.43;;;;;;;11.71;100.00;149057.72;4995186;28;20617;-66
2024/01/24 09:38:13;;;;;;;0.87;0.43;;;;;;;11.61;100.00;149034.06;4988902;28;20319;-66
2024/01/24 09:40:40;;;;;;;3.57;0.40;;;;;;;11.62;100.00;149037.81;4994961;28;20228;-66
2024/01/24 09:43:10;;;;;;;2.90;1.10;;;;;;;11.69;100.00;149054.00;4990359;28;20237;-66
2024/01/24 09:45:38;;;;;;;0.57;0.33;;;;;;;11.85;100.00;149091.41;4995336;28;20268;-66
2024/01/24 09:48:07;;;;;;;0.47;0.30;;;;;;;11.94;100.00;149113.84;4992900;28;20230;-66
2024/01/24 09:50:35;;;;;;;1.53;0.60;;;;;;;11.95;100.00;149116.34;4998246;28;20249;-66
2024/01/24 09:53:05;;;;;;;1.20;0.40;;;;;;;12.01;100.00;149131.34;4996489;28;20234;-66
2024/01/24 09:55:33;;;;;;;2.10;1.10;;;;;;;11.97;100.00;149121.31;4992627;28;20333;-66
2024/01/24 09:58:00;;;;;;;0.73;0.50;;;;;;;12.04;100.00;149137.56;4998746;28;20246;-66
2024/01/24 10:00:27;;;;;;;3.10;0.70;;;;;;;12.00;100.00;149127.56;4984577;28;20250;-66
2024/01/24 10:02:55;;;;;;;2.40;0.90;;;;;;;11.92;100.00;149108.84;4997519;28;20732;-65
2024/01/24 10:05:22;;;;;;;2.33;0.50;;;;;;;11.86;100.00;149095.13;4993337;28;20216;-66
2024/01/24 10:07:50;;;;;;;0.60;0.47;;;;;;;11.80;100.00;149080.16;4990149;28;20234;-66
2024/01/24 10:10:17;;;;;;;1.47;0.47;;;;;;;11.76;100.00;149070.19;4992005;28;20234;-65
2024/01/24 10:12:45;;;;;;;1.00;0.43;;;;;;;11.78;100.00;149076.44;4995251;28;20686;-65
2024/01/24 10:15:12;;;;;;;2.20;1.00;;;;;;;11.85;100.00;149092.63;4993172;28;20222;-65
2024/01/24 10:17:41;;;;;;;1.37;0.40;;;;;;;11.95;100.00;149116.34;4996237;28;20235;-65
2024/01/24 10:20:11;;;;;;;3.10;0.60;;;;;;;11.92;100.00;149108.84;4992559;28;20223;-65
2024/01/24 10:22:38;;;;;;;0.50;0.30;;;;;;;11.90;100.00;149103.88;4996558;28;20284;-65
2024/01/24 10:25:09;;;;;;;2.17;1.10;;;;;;;11.73;100.00;149063.97;4991048;28;20228;-65
2024/01/24 10:27:37;;;;;;;0.50;0.20;;;;;;;11.77;100.00;149073.94;4995593;28;20230;-65
2024/01/24 10:30:09;;;;;;;1.47;0.40;;;;;;;11.66;100.00;149047.75;4992128;28;20234;-66
2024/01/24 10:32:37;;;;;;;1.97;0.70;;;;;;;11.54;100.00;149017.88;4994212;28;20230;-65
2024/01/24 10:35:04;;;;;;;0.80;0.40;;;;;;;11.47;100.00;149001.66;4994148;28;20241;-66
2024/01/24 10:37:32;;;;;;;1.00;0.60;;;;;;;11.60;100.00;149031.56;4994548;28;20256;-66
2024/01/24 10:40:03;;;;;;;0.70;0.30;;;;;;;11.70;100.00;149056.50;4997403;28;20232;-66
2024/01/24 10:42:36;;;;;;;1.30;0.33;;;;;;;11.70;100.00;149055.22;4990476;28;20235;-66
2024/01/24 10:45:05;;;;;;;2.23;0.33;;;;;;;11.72;100.00;149061.47;4993946;28;20695;-66
2024/01/24 10:47:32;;;;;;;0.87;0.20;;;;;;;11.84;100.00;149090.13;4992952;28;20235;-66
2024/01/24 10:50:03;;;;;;;1.70;0.73;;;;;;;11.88;100.00;149098.88;4991522;28;20586;-66
2024/01/24 10:52:31;;;;;;;2.47;1.80;;;;;;;12.03;100.00;149136.34;4991486;28;20248;-66
2024/01/24 10:55:03;;;;;;;0.63;0.50;;;;;;;12.03;100.00;149136.34;4993067;28;20232;-66
2024/01/24 10:57:34;;;;;;;2.17;0.53;;;;;;;11.93;100.00;149112.56;4999620;28;20713;-68
2024/01/24 11:00:04;;;;;;;2.23;0.43;;;;;;;12.01;100.00;149131.34;4994442;28;20230;-68
2024/01/24 11:02:31;;;;;;;1.00;0.30;;;;;;;12.09;100.00;149151.28;4995108;28;20234;-67
2024/01/24 11:05:00;;;;;;;1.63;0.83;;;;;;;12.07;100.00;149146.31;4994789;28;20246;-66
2024/01/24 11:07:37;;;;;;;1.20;0.80;;;;;;;11.93;100.00;149112.56;4993650;28;20239;-66
2024/01/24 11:10:15;;;;;;;0.90;0.43;;;;;;;11.70;100.00;149055.22;4995349;28;20241;-66
2024/01/24 11:12:43;;;;;;;0.93;0.50;;;;;;;11.60;100.00;149032.84;4995090;28;20600;-66
2024/01/24 11:15:13;;;;;;;3.20;0.67;;;;;;;11.37;100.00;148976.72;4993816;28;20806;-66
2024/01/24 11:17:41;;;;;;;3.60;0.77;;;;;;;11.29;100.00;148958.06;4995084;28;20231;-68
2024/01/24 11:20:09;;;;;;;1.93;1.43;;;;;;;11.03;100.00;148894.53;4992625;28;20242;-67
2024/01/24 11:22:36;;;;;;;1.60;0.70;;;;;;;10.91;100.00;148865.84;4993621;28;20600;-64